Time;durP1;ratioP1;P1;durP2;ratioP2;P2;SDS_P1;SDS_P2;PMS_P1;PMS_P2;Temp;Humidity;BMP_temperature;BMP_pressure;BME280_temperature;BME280_humidity;BME280_pressure;Samples;Min_cycle;Max_cycle;Signal;HPM_P1;HPM_P2
2022/05/06 00:00:28;;;;;;;7.80;5.50;;;;;;;10.92;85.27;97084.04;107520;1270;38903;-81
2022/05/06 00:03:11;;;;;;;8.10;6.10;;;;;;;10.97;84.98;97085.82;107560;1270;35550;-80
2022/05/06 00:05:41;;;;;;;6.50;4.40;;;;;;;11.01;84.77;97086.68;107569;1268;43415;-81
2022/05/06 00:08:13;;;;;;;7.90;5.80;;;;;;;11.05;84.57;97080.83;107579;1270;39601;-80
2022/05/06 00:10:45;;;;;;;8.00;5.70;;;;;;;11.07;84.43;97081.77;107596;1269;40963;-81
2022/05/06 00:13:17;;;;;;;10.00;6.40;;;;;;;11.09;84.60;97079.91;107474;1270;43964;-81
2022/05/06 00:15:48;;;;;;;8.10;5.80;;;;;;;11.11;84.48;97080.33;107511;1270;46617;-81
2022/05/06 00:18:19;;;;;;;9.90;7.30;;;;;;;11.14;84.47;97084.48;107546;1270;40313;-81
2022/05/06 00:20:51;;;;;;;9.80;7.00;;;;;;;11.16;84.28;97084.04;107653;1268;36157;-81
2022/05/06 00:23:22;;;;;;;10.90;7.30;;;;;;;11.17;84.22;97085.20;107579;1270;46702;-81
2022/05/06 00:25:53;;;;;;;10.80;7.30;;;;;;;11.18;83.96;97084.20;107654;1268;31620;-81
2022/05/06 00:28:24;;;;;;;11.40;6.80;;;;;;;11.19;83.61;97084.88;107624;1271;34336;-78
2022/05/06 00:30:55;;;;;;;11.60;7.10;;;;;;;11.21;83.22;97082.64;107608;1270;31226;-80
2022/05/06 00:33:26;;;;;;;9.00;6.80;;;;;;;11.21;83.23;97082.54;107552;1270;46721;-81
2022/05/06 00:35:59;;;;;;;9.40;6.40;;;;;;;11.22;83.18;97081.67;107580;1268;32106;-81
2022/05/06 00:38:30;;;;;;;8.30;6.60;;;;;;;11.23;83.01;97079.33;107591;1268;44478;-80
2022/05/06 00:41:01;;;;;;;7.10;5.40;;;;;;;11.25;83.11;97081.92;107575;1268;31796;-81
2022/05/06 00:43:32;;;;;;;7.30;6.10;;;;;;;11.26;82.98;97086.45;107487;1270;42439;-81
2022/05/06 00:46:03;;;;;;;7.30;6.10;;;;;;;11.27;82.89;97079.98;107512;1270;45923;-81
2022/05/06 00:48:34;;;;;;;7.40;5.90;;;;;;;11.27;83.06;97081.98;107583;1271;42428;-81
2022/05/06 00:51:08;;;;;;;7.20;5.80;;;;;;;11.26;82.84;97086.29;107542;1270;35170;-81
2022/05/06 00:53:40;;;;;;;7.90;5.70;;;;;;;11.22;82.98;97086.50;107620;1268;32303;-81
2022/05/06 00:56:13;;;;;;;7.50;5.90;;;;;;;11.26;82.92;97087.03;107581;1269;40258;-81
2022/05/06 00:58:45;;;;;;;8.50;6.20;;;;;;;11.26;82.65;97082.95;107604;1268;37740;-81
2022/05/06 01:01:16;;;;;;;8.60;6.50;;;;;;;11.23;82.72;97086.71;107566;1268;40433;-81
2022/05/06 01:03:48;;;;;;;7.20;5.80;;;;;;;11.20;82.94;97084.98;107500;1270;40819;-81
2022/05/06 01:06:18;;;;;;;7.90;5.70;;;;;;;11.22;82.69;97087.95;107589;1270;40964;-81
2022/05/06 01:08:49;;;;;;;7.00;5.60;;;;;;;11.27;82.56;97087.73;107678;1271;32285;-81
2022/05/06 01:11:20;;;;;;;5.80;4.70;;;;;;;11.32;82.30;97092.21;107666;1270;37737;-80
2022/05/06 01:14:02;;;;;;;5.80;4.40;;;;;;;11.44;81.57;97096.43;107654;1270;33136;-81
2022/05/06 01:16:36;;;;;;;8.00;5.70;;;;;;;11.65;80.84;97101.59;107568;1271;44106;-81
2022/05/06 01:19:07;;;;;;;7.40;5.70;;;;;;;11.81;80.39;97116.89;107580;1270;47249;-81
2022/05/06 01:21:44;;;;;;;7.50;5.50;;;;;;;11.89;80.10;97126.54;107529;1270;40356;-81
2022/05/06 01:24:14;;;;;;;7.60;4.90;;;;;;;11.89;79.92;97126.85;107530;1268;47030;-81
2022/05/06 01:27:01;;;;;;;6.00;4.80;;;;;;;11.88;79.72;97128.45;107580;1268;36774;-81
2022/05/06 01:29:32;;;;;;;7.50;5.80;;;;;;;11.96;79.31;97125.77;107543;1271;33849;-81
2022/05/06 01:32:04;;;;;;;8.50;7.00;;;;;;;12.04;79.32;97127.04;107582;1271;35504;-81
2022/05/06 01:34:39;;;;;;;9.40;7.40;;;;;;;11.84;79.07;97133.61;107625;1271;35858;-81
2022/05/06 01:37:13;;;;;;;10.10;7.90;;;;;;;11.56;79.13;97136.15;107553;1271;45918;-81
2022/05/06 01:39:48;;;;;;;10.50;7.70;;;;;;;11.38;79.19;97141.89;107561;1271;41758;-81
2022/05/06 01:42:21;;;;;;;10.50;7.60;;;;;;;11.33;79.55;97146.68;107776;1270;69161;-82
2022/05/06 01:44:54;;;;;;;9.30;7.50;;;;;;;11.21;79.94;97148.20;107649;1268;47308;-81
2022/05/06 01:47:28;;;;;;;9.50;7.30;;;;;;;11.03;80.78;97142.86;107548;1268;35423;-81
2022/05/06 01:50:01;;;;;;;9.60;7.80;;;;;;;10.94;80.91;97140.52;107642;1271;35393;-81
2022/05/06 01:52:36;;;;;;;9.60;7.50;;;;;;;10.89;81.04;97141.83;107544;1271;35532;-81
2022/05/06 01:55:08;;;;;;;8.60;7.20;;;;;;;10.89;81.25;97140.66;107518;1270;33783;-81
2022/05/06 01:57:39;;;;;;;8.90;6.80;;;;;;;10.91;81.36;97141.70;107503;1270;33428;-81
2022/05/06 02:00:13;;;;;;;8.30;6.80;;;;;;;10.98;81.47;97142.92;107473;1270;54009;-81
2022/05/06 02:02:44;;;;;;;8.50;6.30;;;;;;;11.13;81.73;97139.71;107724;1268;43158;-81
2022/05/06 02:05:19;;;;;;;7.30;5.90;;;;;;;11.27;81.32;97135.55;107569;1271;36180;-81
2022/05/06 02:07:52;;;;;;;7.40;4.80;;;;;;;11.34;81.07;97144.08;107587;1271;47697;-81
2022/05/06 02:10:25;;;;;;;7.10;6.10;;;;;;;11.29;80.88;97146.53;107608;1268;34749;-81
2022/05/06 02:12:56;;;;;;;8.50;5.80;;;;;;;11.32;81.04;97151.30;107616;1268;36410;-80
2022/05/06 02:15:25;;;;;;;;;;;;;;;11.36;80.83;97160.20;107618;1272;40550;-80
2022/05/06 02:17:56;;;;;;;7.30;5.20;;;;;;;11.37;80.58;97154.15;107558;1268;41310;-81
2022/05/06 02:20:27;;;;;;;6.20;5.10;;;;;;;11.37;80.31;97151.80;107509;1270;46455;-81
2022/05/06 02:22:58;;;;;;;6.40;5.70;;;;;;;11.36;80.06;97150.48;107622;1268;30836;-80
2022/05/06 02:25:28;;;;;;;6.50;5.80;;;;;;;11.35;80.12;97146.46;107539;1271;67203;-81
2022/05/06 02:28:01;;;;;;;6.90;5.80;;;;;;;11.35;79.99;97145.98;107569;1270;37922;-81
2022/05/06 02:33:24;;;;;;;7.00;5.70;;;;;;;11.27;79.88;97146.96;107611;1271;43995;-81
2022/05/06 02:35:55;;;;;;;7.60;5.80;;;;;;;11.19;80.44;97145.38;107511;1268;47154;-80
2022/05/06 02:38:27;;;;;;;8.10;6.10;;;;;;;11.17;80.27;97147.14;107533;1268;34758;-80
2022/05/06 02:40:58;;;;;;;8.40;6.10;;;;;;;11.17;80.52;97150.48;107638;1268;32822;-80
2022/05/06 02:43:29;;;;;;;7.80;6.00;;;;;;;11.22;80.20;97152.96;107545;1269;34964;-80
2022/05/06 02:45:58;;;;;;;;;;;;;;;11.27;80.21;97151.10;107577;1271;38365;-81
2022/05/06 02:48:29;;;;;;;8.10;6.20;;;;;;;11.29;80.18;97151.31;107483;1269;40295;-81
2022/05/06 02:50:59;;;;;;;9.00;6.60;;;;;;;11.30;80.49;97154.81;107552;1269;31986;-81
2022/05/06 02:53:30;;;;;;;9.50;5.90;;;;;;;11.29;80.28;97155.67;107532;1271;31465;-81
2022/05/06 02:56:01;;;;;;;10.80;6.90;;;;;;;11.33;80.30;97157.89;107584;1269;40700;-80
2022/05/06 02:58:32;;;;;;;7.90;6.20;;;;;;;11.37;80.25;97159.14;107558;1268;38168;-80
2022/05/06 03:01:02;;;;;;;7.80;6.20;;;;;;;11.43;80.16;97161.74;107607;1268;34572;-81
2022/05/06 03:03:33;;;;;;;8.50;6.70;;;;;;;11.46;80.00;97157.70;107561;1271;34262;-81
2022/05/06 03:06:04;;;;;;;8.00;6.40;;;;;;;11.46;80.18;97161.67;107588;1268;42288;-81
2022/05/06 03:08:35;;;;;;;8.50;6.80;;;;;;;11.42;80.28;97160.31;107550;1268;70030;-81
2022/05/06 03:11:06;;;;;;;8.30;6.50;;;;;;;11.36;80.35;97160.09;107622;1268;32646;-81
2022/05/06 03:13:37;;;;;;;7.30;6.10;;;;;;;11.33;80.57;97163.40;107579;1268;43999;-80
2022/05/06 03:16:08;;;;;;;8.00;6.30;;;;;;;11.29;80.51;97165.98;107533;1270;53215;-81
2022/05/06 03:18:39;;;;;;;8.00;6.70;;;;;;;11.27;81.09;97172.55;107585;1269;38414;-81
2022/05/06 03:21:10;;;;;;;6.70;5.10;;;;;;;11.18;81.93;97182.70;107433;1271;45137;-81
2022/05/06 03:23:41;;;;;;;7.30;5.90;;;;;;;11.11;82.52;97192.09;107475;1271;37888;-80
2022/05/06 03:26:12;;;;;;;6.90;6.20;;;;;;;11.12;82.74;97196.52;107613;1268;31793;-80
2022/05/06 03:28:43;;;;;;;7.30;6.10;;;;;;;11.13;82.68;97201.13;107556;1271;42290;-81
2022/05/06 03:31:14;;;;;;;8.70;6.30;;;;;;;11.13;82.56;97207.23;107529;1268;47958;-81
2022/05/06 03:33:45;;;;;;;7.50;6.20;;;;;;;11.15;82.33;97205.52;107558;1268;40338;-81
2022/05/06 03:36:16;;;;;;;9.50;7.00;;;;;;;11.28;82.37;97213.95;107558;1268;44514;-80
2022/05/06 03:38:49;;;;;;;9.10;6.70;;;;;;;11.33;82.20;97220.90;107619;1268;46680;-80
2022/05/06 03:41:21;;;;;;;8.90;6.40;;;;;;;11.26;82.14;97224.73;107611;1268;71412;-80
2022/05/06 03:43:51;;;;;;;8.50;6.90;;;;;;;11.20;82.36;97223.40;107637;1269;47417;-81
2022/05/06 03:46:22;;;;;;;9.30;7.40;;;;;;;11.18;82.72;97226.27;107599;1268;46832;-81
2022/05/06 03:48:53;;;;;;;8.40;7.20;;;;;;;11.13;83.06;97229.09;107648;1269;46867;-81
2022/05/06 03:51:24;;;;;;;9.30;7.30;;;;;;;11.05;83.39;97233.97;107576;1268;51768;-79
2022/05/06 03:53:57;;;;;;;11.40;8.40;;;;;;;10.94;84.00;97232.38;107476;1271;37540;-80
2022/05/06 03:56:28;;;;;;;10.30;8.50;;;;;;;10.81;84.29;97232.58;107624;1268;39809;-81
2022/05/06 03:59:00;;;;;;;9.80;8.10;;;;;;;10.68;84.67;97229.17;107409;1271;43768;-80
2022/05/06 04:01:31;;;;;;;9.10;8.10;;;;;;;10.59;84.86;97226.73;107508;1268;49615;-80
2022/05/06 04:04:02;;;;;;;9.30;8.30;;;;;;;10.59;85.32;97217.66;107513;1269;40879;-80
2022/05/06 04:06:34;;;;;;;13.10;8.80;;;;;;;10.59;85.83;97219.04;107462;1271;39646;-80
2022/05/06 04:09:05;;;;;;;11.00;8.10;;;;;;;10.58;86.06;97211.09;107426;1271;31363;-80
2022/05/06 04:11:36;;;;;;;9.30;8.10;;;;;;;10.59;86.55;97214.16;107482;1268;45079;-80
2022/05/06 04:14:06;;;;;;;8.90;7.90;;;;;;;10.61;86.62;97212.25;107492;1268;45158;-80
2022/05/06 04:16:37;;;;;;;10.80;9.10;;;;;;;10.64;86.69;97209.11;107500;1271;44117;-80
2022/05/06 04:19:08;;;;;;;9.90;8.80;;;;;;;10.65;86.82;97213.41;107443;1270;39238;-80
2022/05/06 04:24:25;;;;;;;9.40;8.40;;;;;;;10.70;87.24;97218.14;107502;1268;38924;-80
2022/05/06 04:26:56;;;;;;;12.80;9.20;;;;;;;10.76;87.42;97219.73;107547;1268;39075;-79
2022/05/06 04:29:28;;;;;;;10.70;9.60;;;;;;;10.77;87.49;97221.17;107401;1268;110674;-79
2022/05/06 04:32:01;;;;;;;10.30;9.10;;;;;;;10.78;87.56;97224.14;107653;1268;42370;-79
2022/05/06 04:34:31;;;;;;;9.80;8.70;;;;;;;10.78;87.59;97222.55;107335;1271;105439;-80
2022/05/06 04:37:03;;;;;;;10.90;9.20;;;;;;;10.80;87.72;97218.56;107468;1268;107496;-79
2022/05/06 04:39:34;;;;;;;10.70;9.20;;;;;;;10.86;87.91;97217.04;107583;1268;42145;-79
2022/05/06 04:42:06;;;;;;;10.90;9.50;;;;;;;10.92;88.05;97220.59;107543;1268;44700;-80
2022/05/06 04:44:37;;;;;;;11.20;9.90;;;;;;;10.90;88.07;97224.27;107447;1270;34595;-80
2022/05/06 04:47:08;;;;;;;12.10;10.40;;;;;;;10.86;88.20;97226.91;107526;1268;35687;-80
2022/05/06 04:49:39;;;;;;;9.90;8.90;;;;;;;10.89;88.28;97225.54;107529;1268;34666;-80
2022/05/06 04:52:11;;;;;;;10.20;9.20;;;;;;;10.93;88.55;97223.25;107565;1268;34525;-79
2022/05/06 04:54:42;;;;;;;11.40;9.90;;;;;;;10.98;88.72;97217.31;107454;1271;65391;-80
2022/05/06 04:57:13;;;;;;;10.40;8.50;;;;;;;11.07;88.86;97212.36;107449;1268;92184;-79
2022/05/06 04:59:47;;;;;;;7.80;6.90;;;;;;;11.13;88.99;97211.85;107528;1268;88291;-80
2022/05/06 05:02:20;;;;;;;9.10;7.80;;;;;;;11.17;89.39;97215.34;107516;1268;42371;-79
2022/05/06 05:04:56;;;;;;;8.60;7.50;;;;;;;11.18;89.52;97210.52;107615;1268;33958;-79
2022/05/06 05:07:27;;;;;;;8.90;7.20;;;;;;;11.22;89.80;97211.09;107532;1268;33199;-79
2022/05/06 05:09:58;;;;;;;9.40;7.70;;;;;;;11.28;90.26;97208.91;107666;1268;34260;-79
2022/05/06 05:12:29;;;;;;;8.40;7.40;;;;;;;11.34;90.36;97206.52;107658;1268;42778;-79
2022/05/06 05:15:00;;;;;;;8.00;6.30;;;;;;;11.40;90.23;97206.70;107636;1268;44374;-80
2022/05/06 05:17:31;;;;;;;9.70;6.90;;;;;;;11.48;90.08;97206.33;107604;1268;44612;-80
2022/05/06 05:20:02;;;;;;;8.60;6.90;;;;;;;11.56;90.22;97212.15;107677;1268;38315;-80
2022/05/06 05:22:33;;;;;;;9.20;7.40;;;;;;;11.63;90.43;97213.09;107569;1268;40936;-79
2022/05/06 05:25:05;;;;;;;8.20;7.40;;;;;;;11.65;90.29;97216.05;107551;1268;44726;-80
2022/05/06 05:27:37;;;;;;;9.00;7.30;;;;;;;11.67;90.19;97215.35;107467;1270;74622;-80
2022/05/06 05:30:11;;;;;;;8.20;7.40;;;;;;;11.72;89.86;97209.94;107668;1268;36688;-80
2022/05/06 05:32:42;;;;;;;8.50;7.50;;;;;;;11.78;89.84;97204.06;107468;1270;45734;-80
2022/05/06 05:35:13;;;;;;;8.70;7.60;;;;;;;11.88;89.72;97204.91;107417;1271;44636;-80
2022/05/06 05:37:44;;;;;;;7.60;6.70;;;;;;;12.05;89.69;97204.20;107579;1268;37404;-81
2022/05/06 05:40:15;;;;;;;7.20;6.30;;;;;;;12.21;89.15;97202.05;107611;1268;31957;-80
2022/05/06 05:42:46;;;;;;;7.10;6.30;;;;;;;12.38;88.51;97200.48;107504;1268;36924;-80
2022/05/06 05:48:22;;;;;;;8.30;6.90;;;;;;;12.66;87.69;97199.34;107475;1270;49138;-80
2022/05/06 05:50:53;;;;;;;7.90;6.10;;;;;;;12.80;87.47;97198.29;107602;1268;39123;-81
2022/05/06 05:53:24;;;;;;;6.90;5.60;;;;;;;12.96;87.20;97203.33;107592;1266;43153;-77
2022/05/06 05:55:55;;;;;;;7.60;6.40;;;;;;;13.12;86.98;97200.33;107508;1270;43566;-79
2022/05/06 05:58:26;;;;;;;7.10;6.20;;;;;;;13.39;86.96;97202.66;107503;1270;41892;-79
2022/05/06 06:00:57;;;;;;;7.00;6.20;;;;;;;13.67;86.27;97205.68;107624;1268;32604;-79
2022/05/06 06:03:29;;;;;;;7.70;5.70;;;;;;;13.91;85.54;97203.65;107514;1268;43067;-80
2022/05/06 06:06:00;;;;;;;7.70;5.80;;;;;;;14.15;84.94;97205.00;107540;1268;37128;-80
2022/05/06 06:08:31;;;;;;;5.90;5.40;;;;;;;14.29;84.10;97209.27;107580;1268;31557;-80
2022/05/06 06:11:02;;;;;;;5.60;5.00;;;;;;;14.08;82.89;97208.36;107571;1268;43224;-80
2022/05/06 06:13:33;;;;;;;4.80;4.40;;;;;;;13.84;82.41;97217.59;107483;1270;46993;-80
2022/05/06 06:16:05;;;;;;;5.60;4.70;;;;;;;13.73;82.49;97215.69;107588;1268;48635;-80
2022/05/06 06:18:36;;;;;;;6.30;5.40;;;;;;;13.68;82.84;97220.70;107585;1268;42969;-81
2022/05/06 06:21:07;;;;;;;5.80;5.00;;;;;;;13.63;83.29;97222.49;107589;1268;37054;-80
2022/05/06 06:23:38;;;;;;;6.80;5.60;;;;;;;13.61;83.46;97220.16;107512;1270;36198;-80
2022/05/06 06:26:09;;;;;;;6.30;5.60;;;;;;;13.55;83.88;97219.88;107506;1268;47102;-80
2022/05/06 06:28:39;;;;;;;6.50;5.80;;;;;;;13.56;84.13;97223.05;107603;1268;37244;-80
2022/05/06 06:31:10;;;;;;;7.00;5.90;;;;;;;13.53;84.25;97227.56;107574;1268;39934;-80
2022/05/06 06:33:42;;;;;;;8.00;6.50;;;;;;;13.34;84.75;97230.56;107601;1268;36728;-81
2022/05/06 06:36:13;;;;;;;7.50;6.30;;;;;;;13.11;85.25;97239.15;107561;1268;45478;-81
2022/05/06 06:38:44;;;;;;;7.60;6.60;;;;;;;12.99;85.58;97240.20;107617;1268;43494;-80
2022/05/06 06:41:15;;;;;;;9.00;7.20;;;;;;;12.96;86.05;97236.02;107534;1268;34679;-80
2022/05/06 06:43:46;;;;;;;8.90;7.30;;;;;;;12.95;86.46;97235.05;107447;1271;35064;-81
2022/05/06 06:46:17;;;;;;;10.30;7.80;;;;;;;12.90;86.32;97237.27;107431;1270;37988;-80
2022/05/06 06:48:48;;;;;;;8.20;7.30;;;;;;;12.78;86.23;97235.23;107557;1268;41592;-81
2022/05/06 06:51:19;;;;;;;9.80;8.30;;;;;;;12.68;86.43;97234.83;107623;1268;40505;-80
2022/05/06 06:53:53;;;;;;;12.20;8.30;;;;;;;12.62;86.32;97236.02;107628;1268;41309;-80
2022/05/06 06:56:24;;;;;;;9.70;7.70;;;;;;;12.56;86.58;97232.40;107625;1268;43410;-81
2022/05/06 06:58:54;;;;;;;9.70;8.50;;;;;;;12.48;86.79;97232.21;107599;1268;42266;-80
2022/05/06 07:01:25;;;;;;;8.90;7.60;;;;;;;12.54;87.35;97230.87;107490;1270;38959;-80
2022/05/06 07:03:56;;;;;;;9.60;8.40;;;;;;;12.57;87.45;97235.27;107567;1268;46812;-80
2022/05/06 07:12:05;;;;;;;8.70;7.90;;;;;;;12.72;88.05;97252.94;107538;1268;36614;-80
2022/05/06 07:14:36;;;;;;;7.70;6.50;;;;;;;12.74;88.17;97253.94;107624;1268;39341;-80
2022/05/06 07:17:08;;;;;;;7.00;6.20;;;;;;;12.80;88.06;97251.34;107498;1270;38910;-80
2022/05/06 07:19:38;;;;;;;8.80;5.90;;;;;;;12.88;88.07;97253.52;107439;1270;44222;-81
2022/05/06 07:22:09;;;;;;;6.60;6.00;;;;;;;12.96;88.03;97258.30;107580;1267;45581;-80
2022/05/06 07:24:40;;;;;;;7.80;6.30;;;;;;;13.00;87.78;97263.82;107449;1270;42325;-80
2022/05/06 07:27:11;;;;;;;7.40;6.70;;;;;;;12.97;87.79;97266.35;107565;1268;32291;-80
2022/05/06 07:29:42;;;;;;;7.70;6.90;;;;;;;12.95;87.91;97265.67;107486;1270;30692;-80
2022/05/06 07:32:13;;;;;;;8.00;7.20;;;;;;;13.00;88.17;97265.04;107511;1270;37244;-80
2022/05/06 07:34:44;;;;;;;8.70;7.90;;;;;;;13.01;87.97;97267.91;107482;1271;35145;-80
2022/05/06 07:37:15;;;;;;;9.00;8.10;;;;;;;12.95;87.77;97264.92;107535;1268;36139;-80
2022/05/06 07:39:46;;;;;;;11.40;8.40;;;;;;;12.89;87.59;97269.91;107517;1268;44133;-80
2022/05/06 07:42:17;;;;;;;10.80;8.60;;;;;;;12.86;87.62;97264.20;107513;1268;46043;-80
2022/05/06 07:44:49;;;;;;;9.70;8.70;;;;;;;12.85;87.78;97269.73;107478;1270;41962;-81
2022/05/06 07:47:19;;;;;;;12.00;10.00;;;;;;;12.85;87.83;97277.67;107666;1270;34439;-80
2022/05/06 07:49:51;;;;;;;10.60;9.50;;;;;;;12.84;88.10;97280.17;107484;1270;49164;-80
2022/05/06 07:52:22;;;;;;;10.20;9.20;;;;;;;12.85;88.46;97282.30;107522;1270;55645;-80
2022/05/06 07:54:52;;;;;;;10.60;9.00;;;;;;;12.90;88.87;97282.52;107593;1268;33556;-80
2022/05/06 07:57:23;;;;;;;8.70;7.80;;;;;;;12.96;89.36;97281.05;107537;1270;41800;-80
2022/05/06 07:59:54;;;;;;;9.60;8.50;;;;;;;13.00;89.79;97280.70;107663;1268;46054;-80
2022/05/06 08:05:13;;;;;;;8.00;6.70;;;;;;;13.05;90.47;97290.13;107535;1268;48479;-80
2022/05/06 08:07:45;;;;;;;10.40;7.70;;;;;;;13.06;90.70;97289.31;107511;1268;53209;-80
2022/05/06 08:10:16;;;;;;;10.80;7.60;;;;;;;13.13;90.80;97290.98;107604;1268;34797;-80
2022/05/06 08:12:48;;;;;;;9.10;7.50;;;;;;;13.15;90.01;97286.14;107618;1268;36610;-80
2022/05/06 08:15:19;;;;;;;9.00;8.00;;;;;;;13.14;89.41;97291.48;107604;1270;38693;-80
2022/05/06 08:17:50;;;;;;;9.50;7.70;;;;;;;13.15;89.45;97297.80;107600;1269;39277;-80
2022/05/06 08:20:21;;;;;;;9.60;8.50;;;;;;;13.12;89.32;97298.98;107663;1268;38414;-80
2022/05/06 08:22:52;;;;;;;9.90;8.90;;;;;;;13.13;89.31;97293.77;107553;1268;49175;-80
2022/05/06 08:25:24;;;;;;;9.30;8.00;;;;;;;13.18;89.55;97297.56;107582;1269;47357;-80
2022/05/06 08:27:55;;;;;;;10.50;8.80;;;;;;;13.19;89.54;97303.95;107588;1268;44934;-80
2022/05/06 08:30:26;;;;;;;11.20;10.00;;;;;;;13.01;88.75;97307.95;107590;1268;47880;-79
2022/05/06 08:32:57;;;;;;;9.90;8.70;;;;;;;12.91;88.81;97310.02;107662;1270;32337;-79
2022/05/06 08:35:28;;;;;;;8.80;7.80;;;;;;;12.80;88.83;97308.66;107446;1268;44706;-79
2022/05/06 08:37:59;;;;;;;7.60;6.70;;;;;;;12.66;88.82;97310.80;107395;1270;41762;-80
2022/05/06 08:40:31;;;;;;;8.00;6.50;;;;;;;12.61;89.33;97314.60;107542;1268;33435;-79
2022/05/06 08:43:02;;;;;;;7.20;6.20;;;;;;;12.56;89.05;97315.27;107484;1270;44124;-79
2022/05/06 08:51:11;;;;;;;8.10;7.20;;;;;;;12.69;88.48;97317.66;107529;1270;37784;-80
2022/05/06 08:53:42;;;;;;;7.60;6.60;;;;;;;12.73;88.01;97318.59;107498;1270;64711;-80
2022/05/06 08:56:13;;;;;;;7.80;7.00;;;;;;;12.78;87.84;97320.84;107532;1270;44937;-80
2022/05/06 08:58:44;;;;;;;8.40;7.40;;;;;;;12.81;88.15;97317.71;107568;1268;47025;-80
2022/05/06 09:01:17;;;;;;;9.00;8.10;;;;;;;12.86;88.25;97318.41;107527;1268;42035;-80
2022/05/06 09:03:50;;;;;;;8.90;7.60;;;;;;;12.93;88.51;97321.40;107578;1268;43494;-80
2022/05/06 09:06:22;;;;;;;9.10;8.20;;;;;;;12.94;88.19;97324.20;107567;1268;33768;-80
2022/05/06 09:08:57;;;;;;;9.90;8.30;;;;;;;12.95;87.97;97322.95;107639;1268;44136;-80
2022/05/06 09:17:22;;;;;;;10.20;9.10;;;;;;;12.80;89.50;97327.81;107565;1268;36300;-80
2022/05/06 09:19:53;;;;;;;11.40;8.70;;;;;;;12.76;89.95;97327.30;107641;1268;45732;-80
2022/05/06 09:22:31;;;;;;;10.70;9.60;;;;;;;12.75;90.36;97329.54;107638;1268;53229;-81
2022/05/06 09:25:02;;;;;;;12.60;10.20;;;;;;;12.75;90.85;97333.31;107619;1268;28760;-80
2022/05/06 09:27:32;;;;;;;11.90;10.70;;;;;;;12.75;90.76;97334.38;107537;1268;46139;-80
2022/05/06 09:30:09;;;;;;;12.60;10.20;;;;;;;12.78;90.80;97329.09;107665;1268;38575;-80
2022/05/06 09:32:40;;;;;;;11.70;9.90;;;;;;;12.81;91.24;97331.06;107659;1268;31584;-80
2022/05/06 09:35:15;;;;;;;14.80;9.40;;;;;;;12.81;90.94;97329.67;107559;1268;37484;-80
2022/05/06 09:37:48;;;;;;;13.90;10.30;;;;;;;12.81;90.97;97329.09;107621;1268;32771;-80
2022/05/06 09:40:20;;;;;;;10.80;9.70;;;;;;;12.82;90.73;97321.22;107598;1268;35155;-80
2022/05/06 09:43:01;;;;;;;10.50;9.40;;;;;;;12.84;90.88;97319.71;107522;1268;48813;-81
2022/05/06 09:45:32;;;;;;;;;;;;;;;12.81;91.02;97317.53;107559;1268;46429;-80
2022/05/06 09:48:06;;;;;;;11.30;9.80;;;;;;;12.78;91.07;97322.17;107620;1268;31753;-80
2022/05/06 09:50:39;;;;;;;11.10;9.70;;;;;;;12.78;91.40;97320.84;107607;1268;42864;-80
2022/05/06 09:53:11;;;;;;;9.40;8.50;;;;;;;12.77;92.05;97320.95;107556;1268;77708;-80
2022/05/06 09:55:45;;;;;;;12.70;10.40;;;;;;;12.76;92.08;97318.04;107583;1268;38762;-80
2022/05/06 09:58:17;;;;;;;11.60;9.70;;;;;;;12.78;92.32;97318.34;107611;1270;38051;-80
2022/05/06 10:00:48;;;;;;;10.20;9.20;;;;;;;12.81;91.94;97323.92;107568;1268;34020;-80
2022/05/06 10:03:18;;;;;;;10.20;9.20;;;;;;;12.90;91.63;97320.63;107535;1270;34544;-80
2022/05/06 10:05:49;;;;;;;11.10;10.00;;;;;;;12.98;91.46;97324.84;107578;1268;31761;-80
2022/05/06 10:08:23;;;;;;;11.10;10.00;;;;;;;13.10;91.62;97325.66;107600;1268;41805;-80
2022/05/06 10:11:01;;;;;;;10.10;8.80;;;;;;;13.22;91.02;97327.48;107684;1268;43130;-80
2022/05/06 10:13:34;;;;;;;9.00;8.10;;;;;;;13.32;90.32;97331.08;107609;1268;35538;-80
2022/05/06 10:16:06;;;;;;;9.70;8.70;;;;;;;13.39;90.11;97333.54;107482;1270;41901;-80
2022/05/06 10:18:38;;;;;;;11.20;9.60;;;;;;;13.50;89.95;97336.02;107534;1268;44126;-80
2022/05/06 10:21:10;;;;;;;10.10;8.80;;;;;;;13.64;89.88;97335.67;107594;1268;43104;-80
2022/05/06 10:23:52;;;;;;;9.20;8.20;;;;;;;13.83;89.32;97331.72;107663;1268;45395;-80
2022/05/06 10:26:45;;;;;;;9.60;8.60;;;;;;;14.05;88.89;97326.39;107705;1268;39481;-80
2022/05/06 10:32:59;;;;;;;11.10;8.30;;;;;;;14.62;89.16;97324.02;107561;1268;42714;-80
2022/05/06 10:35:44;;;;;;;10.10;8.20;;;;;;;14.82;88.41;97319.04;107531;1268;47847;-80
2022/05/06 10:38:23;;;;;;;8.70;7.80;;;;;;;14.85;86.36;97320.09;107543;1270;38603;-80
2022/05/06 10:40:58;;;;;;;9.00;8.00;;;;;;;14.89;86.20;97315.48;107658;1268;31121;-81
2022/05/06 10:43:53;;;;;;;11.80;8.20;;;;;;;15.01;86.20;97311.15;107535;1268;52959;-80
2022/05/06 10:46:40;;;;;;;8.90;8.00;;;;;;;15.08;85.56;97310.69;107553;1270;38226;-81
2022/05/06 10:49:48;;;;;;;8.90;8.00;;;;;;;15.04;85.21;97308.48;107614;1268;38216;-81
2022/05/06 10:52:44;;;;;;;9.30;8.40;;;;;;;15.04;85.50;97308.31;107511;1268;41615;-81
2022/05/06 10:55:17;;;;;;;12.40;9.50;;;;;;;15.04;85.33;97308.11;107502;1270;38102;-80
2022/05/06 10:57:51;;;;;;;11.90;9.80;;;;;;;15.01;85.01;97304.95;107544;1270;41190;-80
2022/05/06 11:00:23;;;;;;;12.80;9.60;;;;;;;14.95;84.89;97305.25;107691;1270;38319;-81
2022/05/06 11:02:53;;;;;;;13.60;10.50;;;;;;;14.87;84.71;97308.52;107670;1268;30035;-81
2022/05/06 11:05:25;;;;;;;12.40;10.40;;;;;;;14.87;84.92;97304.52;107647;1268;43216;-81
2022/05/06 11:08:01;;;;;;;11.90;10.60;;;;;;;14.86;84.39;97303.67;107647;1268;47248;-80
2022/05/06 11:10:34;;;;;;;11.60;9.40;;;;;;;14.88;84.34;97306.05;107579;1269;51893;-80
2022/05/06 11:13:09;;;;;;;10.10;9.10;;;;;;;14.88;84.16;97302.14;107589;1268;52020;-81
2022/05/06 11:15:40;;;;;;;12.80;9.90;;;;;;;14.88;83.84;97306.21;107395;1268;259366;-81
2022/05/06 11:18:11;;;;;;;11.60;9.50;;;;;;;14.85;83.72;97303.48;107552;1268;35782;-80
2022/05/06 11:20:42;;;;;;;13.40;11.00;;;;;;;14.83;83.72;97303.92;107582;1268;29365;-80
2022/05/06 11:23:15;;;;;;;12.40;11.00;;;;;;;14.79;83.71;97302.23;107526;1270;35641;-81
2022/05/06 11:25:48;;;;;;;12.30;10.60;;;;;;;14.75;83.43;97301.04;107578;1268;37470;-81
2022/05/06 11:28:21;;;;;;;11.10;10.00;;;;;;;14.69;83.37;97298.67;107640;1270;42801;-80
2022/05/06 11:30:54;;;;;;;12.00;10.70;;;;;;;14.64;83.57;97298.38;107660;1268;42486;-81
2022/05/06 11:33:27;;;;;;;13.30;11.90;;;;;;;14.63;83.78;97299.48;107614;1268;48304;-81
2022/05/06 11:36:03;;;;;;;13.20;11.80;;;;;;;14.61;83.87;97299.09;107581;1268;37151;-81
2022/05/06 11:38:36;;;;;;;9.90;8.80;;;;;;;14.63;83.99;97301.68;107583;1270;37814;-81
2022/05/06 11:41:11;;;;;;;9.60;8.60;;;;;;;14.58;83.43;97300.73;107553;1269;46758;-81
2022/05/06 11:43:44;;;;;;;8.40;6.60;;;;;;;14.54;83.55;97299.41;107578;1269;30535;-81
2022/05/06 11:49:09;;;;;;;8.90;7.20;;;;;;;14.45;83.41;97295.71;107577;1268;36339;-81
2022/05/06 11:51:42;;;;;;;8.40;7.40;;;;;;;14.43;83.39;97302.24;107622;1268;49177;-81
2022/05/06 11:54:15;;;;;;;7.50;6.70;;;;;;;14.45;83.18;97299.71;107601;1270;42893;-80
2022/05/06 11:56:48;;;;;;;6.70;6.00;;;;;;;14.47;83.34;97301.19;107598;1267;38278;-81
2022/05/06 11:59:20;;;;;;;7.90;7.20;;;;;;;14.49;83.13;97302.98;107627;1268;34884;-81
2022/05/06 12:01:52;;;;;;;7.50;6.80;;;;;;;14.54;82.77;97299.89;107607;1268;34046;-81
2022/05/06 12:04:32;;;;;;;12.50;9.40;;;;;;;14.53;82.33;97307.69;107619;1268;33872;-81
2022/05/06 12:07:03;;;;;;;10.70;8.30;;;;;;;14.55;83.09;97309.31;107607;1268;39331;-80
2022/05/06 12:09:44;;;;;;;10.10;8.20;;;;;;;14.59;83.55;97306.75;107589;1268;51673;-81
2022/05/06 12:12:16;;;;;;;7.60;6.70;;;;;;;14.66;83.21;97301.33;107512;1268;41583;-81
2022/05/06 12:14:47;;;;;;;8.00;6.70;;;;;;;14.65;82.17;97295.15;107563;1268;51365;-81
2022/05/06 12:17:19;;;;;;;8.40;6.60;;;;;;;14.58;82.21;97296.63;107570;1268;44055;-81
2022/05/06 12:19:50;;;;;;;7.20;6.50;;;;;;;14.52;82.39;97298.69;107496;1270;41550;-81